sensor_id;sensor_type;location;lat;lon;timestamp;pressure;altitude;pressure_sealevel;temperature;humidity
70343;BME280;57767;42.068;24.752;2022-08-24T00:00:21;98505.91;;;21.67;71.70
70343;BME280;57767;42.068;24.752;2022-08-24T00:01:25;98496.84;;;21.63;72.06
70343;BME280;57767;42.068;24.752;2022-08-24T00:02:28;98495.25;;;21.62;72.00
70343;BME280;57767;42.068;24.752;2022-08-24T00:03:31;98491.00;;;21.56;71.98
70343;BME280;57767;42.068;24.752;2022-08-24T00:04:35;98462.16;;;21.43;71.92
70343;BME280;57767;42.068;24.752;2022-08-24T00:05:37;98472.28;;;21.51;72.21
70343;BME280;57767;42.068;24.752;2022-08-24T00:06:39;98478.66;;;21.55;72.34
70343;BME280;57767;42.068;24.752;2022-08-24T00:07:41;98473.56;;;21.54;72.58
70343;BME280;57767;42.068;24.752;2022-08-24T00:08:43;98457.38;;;21.40;72.39
70343;BME280;57767;42.068;24.752;2022-08-24T00:09:46;98473.13;;;21.47;72.91
70343;BME280;57767;42.068;24.752;2022-08-24T00:10:51;98463.53;;;21.40;72.75
70343;BME280;57767;42.068;24.752;2022-08-24T00:11:52;98475.38;;;21.39;72.63
70343;BME280;57767;42.068;24.752;2022-08-24T00:12:54;98472.38;;;21.41;72.84
70343;BME280;57767;42.068;24.752;2022-08-24T00:13:56;98482.84;;;21.42;72.56
70343;BME280;57767;42.068;24.752;2022-08-24T00:14:58;98484.72;;;21.42;72.84
70343;BME280;57767;42.068;24.752;2022-08-24T00:16:00;98487.13;;;21.43;72.29
70343;BME280;57767;42.068;24.752;2022-08-24T00:17:02;98484.16;;;21.45;72.67
70343;BME280;57767;42.068;24.752;2022-08-24T00:18:05;98478.00;;;21.44;72.91
70343;BME280;57767;42.068;24.752;2022-08-24T00:19:07;98482.56;;;21.44;73.25
70343;BME280;57767;42.068;24.752;2022-08-24T00:20:10;98480.97;;;21.43;73.42
70343;BME280;57767;42.068;24.752;2022-08-24T00:21:12;98484.16;;;21.45;73.19
70343;BME280;57767;42.068;24.752;2022-08-24T00:22:14;98480.97;;;21.43;73.10
70343;BME280;57767;42.068;24.752;2022-08-24T00:23:16;98474.28;;;21.40;73.28
70343;BME280;57767;42.068;24.752;2022-08-24T00:24:18;98473.78;;;21.38;73.15
70343;BME280;57767;42.068;24.752;2022-08-24T00:25:20;98483.38;;;21.44;73.01
70343;BME280;57767;42.068;24.752;2022-08-24T00:26:22;98472.47;;;21.36;72.99
70343;BME280;57767;42.068;24.752;2022-08-24T00:27:29;98474.06;;;21.37;72.54
70343;BME280;57767;42.068;24.752;2022-08-24T00:28:31;98488.16;;;21.48;72.73
70343;BME280;57767;42.068;24.752;2022-08-24T00:29:34;98487.41;;;21.42;72.90
70343;BME280;57767;42.068;24.752;2022-08-24T00:30:36;98489.91;;;21.38;72.73
70343;BME280;57767;42.068;24.752;2022-08-24T00:31:38;98499.84;;;21.38;73.16
70343;BME280;57767;42.068;24.752;2022-08-24T00:32:41;98494.00;;;21.31;73.26
70343;BME280;57767;42.068;24.752;2022-08-24T00:33:43;98489.78;;;21.25;73.09
70343;BME280;57767;42.068;24.752;2022-08-24T00:34:45;98492.41;;;21.30;73.18
70343;BME280;57767;42.068;24.752;2022-08-24T00:35:59;98498.84;;;21.29;73.02
70343;BME280;57767;42.068;24.752;2022-08-24T00:37:02;98487.41;;;21.18;72.79
70343;BME280;57767;42.068;24.752;2022-08-24T00:38:04;98495.72;;;21.22;73.11
70343;BME280;57767;42.068;24.752;2022-08-24T00:39:06;98500.56;;;21.20;73.15
70343;BME280;57767;42.068;24.752;2022-08-24T00:40:19;98456.53;;;20.92;73.20
70343;BME280;57767;42.068;24.752;2022-08-24T00:41:22;98505.69;;;21.16;73.29
70343;BME280;57767;42.068;24.752;2022-08-24T00:42:24;98492.84;;;21.13;73.19
70343;BME280;57767;42.068;24.752;2022-08-24T00:43:27;98502.78;;;21.13;73.18
70343;BME280;57767;42.068;24.752;2022-08-24T00:44:29;98500.09;;;21.13;73.39
70343;BME280;57767;42.068;24.752;2022-08-24T00:45:35;98495.34;;;21.04;73.39
70343;BME280;57767;42.068;24.752;2022-08-24T00:48:00;98494.63;;;20.94;73.34
70343;BME280;57767;42.068;24.752;2022-08-24T00:49:08;98515.97;;;21.09;73.47
70343;BME280;57767;42.068;24.752;2022-08-24T00:50:21;98500.50;;;21.01;73.51
70343;BME280;57767;42.068;24.752;2022-08-24T00:51:29;98495.44;;;20.94;73.61
70343;BME280;57767;42.068;24.752;2022-08-24T00:52:38;98518.41;;;21.05;73.46
70343;BME280;57767;42.068;24.752;2022-08-24T00:53:46;98522.16;;;21.04;73.72
70343;BME280;57767;42.068;24.752;2022-08-24T00:55:01;98514.41;;;21.03;73.42
70343;BME280;57767;42.068;24.752;2022-08-24T00:57:31;98491.78;;;20.85;73.76
70343;BME280;57767;42.068;24.752;2022-08-24T00:58:45;98516.63;;;20.96;73.88
70343;BME280;57767;42.068;24.752;2022-08-24T00:59:59;98512.09;;;20.91;73.85
70343;BME280;57767;42.068;24.752;2022-08-24T01:01:04;98495.81;;;20.83;74.09
70343;BME280;57767;42.068;24.752;2022-08-24T01:02:13;98516.91;;;20.94;73.75
70343;BME280;57767;42.068;24.752;2022-08-24T01:03:17;98507.88;;;20.85;74.19
70343;BME280;57767;42.068;24.752;2022-08-24T01:04:24;98516.97;;;20.89;74.35
70343;BME280;57767;42.068;24.752;2022-08-24T01:05:39;98517.53;;;20.86;74.41
70343;BME280;57767;42.068;24.752;2022-08-24T01:06:41;98512.72;;;20.83;74.34
70343;BME280;57767;42.068;24.752;2022-08-24T01:07:44;98514.31;;;20.84;74.58
70343;BME280;57767;42.068;24.752;2022-08-24T01:08:47;98521.34;;;20.80;74.77
70343;BME280;57767;42.068;24.752;2022-08-24T01:10:04;98520.25;;;20.81;74.80
70343;BME280;57767;42.068;24.752;2022-08-24T01:11:19;98520.25;;;20.81;74.76
70343;BME280;57767;42.068;24.752;2022-08-24T01:12:21;98479.16;;;20.57;74.58
70343;BME280;57767;42.068;24.752;2022-08-24T01:13:26;98524.25;;;20.84;74.64
70343;BME280;57767;42.068;24.752;2022-08-24T01:14:29;98507.47;;;20.73;74.95
70343;BME280;57767;42.068;24.752;2022-08-24T01:15:40;98530.44;;;20.84;74.56
70343;BME280;57767;42.068;24.752;2022-08-24T01:16:43;98510.66;;;20.75;74.51
70343;BME280;57767;42.068;24.752;2022-08-24T01:18:06;98521.28;;;20.85;74.51
70343;BME280;57767;42.068;24.752;2022-08-24T01:19:34;98515.41;;;20.83;74.60
70343;BME280;57767;42.068;24.752;2022-08-24T01:20:36;98520.78;;;20.83;74.33
70343;BME280;57767;42.068;24.752;2022-08-24T01:23:31;98520.78;;;20.83;74.22
70343;BME280;57767;42.068;24.752;2022-08-24T01:24:37;98501.53;;;20.76;74.36
70343;BME280;57767;42.068;24.752;2022-08-24T01:25:42;98517.53;;;20.86;74.28
70343;BME280;57767;42.068;24.752;2022-08-24T01:26:47;98518.84;;;20.89;74.23
70343;BME280;57767;42.068;24.752;2022-08-24T01:27:50;98516.97;;;20.89;73.89
70343;BME280;57767;42.068;24.752;2022-08-24T01:28:56;98492.72;;;20.70;74.08
70343;BME280;57767;42.068;24.752;2022-08-24T01:30:05;98466.59;;;20.52;74.12
70343;BME280;57767;42.068;24.752;2022-08-24T01:31:07;98517.56;;;20.81;74.18
70343;BME280;57767;42.068;24.752;2022-08-24T01:32:09;98536.03;;;20.88;73.90
70343;BME280;57767;42.068;24.752;2022-08-24T01:33:22;98528.81;;;20.83;73.83
70343;BME280;57767;42.068;24.752;2022-08-24T01:34:24;98531.47;;;20.88;73.49
70343;BME280;57767;42.068;24.752;2022-08-24T01:35:27;98531.97;;;20.90;73.52
70343;BME280;57767;42.068;24.752;2022-08-24T01:36:35;98537.06;;;20.92;73.28
70343;BME280;57767;42.068;24.752;2022-08-24T01:37:38;98526.66;;;20.85;73.15
70343;BME280;57767;42.068;24.752;2022-08-24T01:38:41;98541.41;;;20.88;73.42
70343;BME280;57767;42.068;24.752;2022-08-24T01:39:45;98537.94;;;20.87;73.43
70343;BME280;57767;42.068;24.752;2022-08-24T01:40:52;98536.31;;;20.86;73.29
70343;BME280;57767;42.068;24.752;2022-08-24T01:41:56;98538.72;;;20.88;73.05
70343;BME280;57767;42.068;24.752;2022-08-24T01:42:58;98524.81;;;20.81;73.01
70343;BME280;57767;42.068;24.752;2022-08-24T01:44:00;98533.84;;;20.90;72.68
70343;BME280;57767;42.068;24.752;2022-08-24T01:45:03;98531.97;;;20.90;72.69
70343;BME280;57767;42.068;24.752;2022-08-24T01:46:05;98525.34;;;20.83;72.91
70343;BME280;57767;42.068;24.752;2022-08-24T01:47:09;98527.41;;;20.91;72.85
70343;BME280;57767;42.068;24.752;2022-08-24T01:48:11;98528.47;;;20.90;72.98
70343;BME280;57767;42.068;24.752;2022-08-24T01:49:29;98530.94;;;20.86;72.72
70343;BME280;57767;42.068;24.752;2022-08-24T01:50:32;98514.16;;;20.76;72.77
70343;BME280;57767;42.068;24.752;2022-08-24T01:51:34;98537.13;;;20.87;72.78
70343;BME280;57767;42.068;24.752;2022-08-24T01:52:38;98543.28;;;20.87;72.69
70343;BME280;57767;42.068;24.752;2022-08-24T01:54:01;98528.38;;;20.76;72.65
70343;BME280;57767;42.068;24.752;2022-08-24T01:55:06;98548.66;;;20.87;72.97
70343;BME280;57767;42.068;24.752;2022-08-24T01:56:08;98545.97;;;20.87;72.49
70343;BME280;57767;42.068;24.752;2022-08-24T01:57:10;98546.25;;;20.86;72.62
70343;BME280;57767;42.068;24.752;2022-08-24T01:58:17;98543.84;;;20.84;72.81
70343;BME280;57767;42.068;24.752;2022-08-24T01:59:19;98543.28;;;20.87;72.57
70343;BME280;57767;42.068;24.752;2022-08-24T02:00:21;98545.69;;;20.89;72.90
70343;BME280;57767;42.068;24.752;2022-08-24T02:01:24;98524.59;;;20.77;72.41
70343;BME280;57767;42.068;24.752;2022-08-24T02:02:30;98539.00;;;20.86;72.62
70343;BME280;57767;42.068;24.752;2022-08-24T02:03:32;98532.56;;;20.87;72.66
70343;BME280;57767;42.068;24.752;2022-08-24T02:04:35;98525.59;;;20.86;73.10
70343;BME280;57767;42.068;24.752;2022-08-24T02:05:37;98532.84;;;20.86;72.89
70343;BME280;57767;42.068;24.752;2022-08-24T02:06:38;98528.31;;;20.81;72.96
70343;BME280;57767;42.068;24.752;2022-08-24T02:07:41;98521.84;;;20.82;73.06
70343;BME280;57767;42.068;24.752;2022-08-24T02:08:43;98526.16;;;20.83;73.23
70343;BME280;57767;42.068;24.752;2022-08-24T02:09:45;98526.69;;;20.80;73.48
70343;BME280;57767;42.068;24.752;2022-08-24T02:10:47;98532.66;;;20.77;73.76
70343;BME280;57767;42.068;24.752;2022-08-24T02:11:57;98524.38;;;20.68;73.88
70343;BME280;57767;42.068;24.752;2022-08-24T02:12:59;98519.81;;;20.69;74.03
70343;BME280;57767;42.068;24.752;2022-08-24T02:14:01;98536.97;;;20.73;74.09
70343;BME280;57767;42.068;24.752;2022-08-24T02:15:07;98538.31;;;20.70;73.98
70343;BME280;57767;42.068;24.752;2022-08-24T02:16:09;98537.78;;;20.73;74.13
70343;BME280;57767;42.068;24.752;2022-08-24T02:17:12;98538.28;;;20.76;74.07
70343;BME280;57767;42.068;24.752;2022-08-24T02:18:13;98540.69;;;20.77;74.07
70343;BME280;57767;42.068;24.752;2022-08-24T02:19:16;98533.75;;;20.71;74.50
70343;BME280;57767;42.068;24.752;2022-08-24T02:20:18;98540.19;;;20.75;74.39
70343;BME280;57767;42.068;24.752;2022-08-24T02:21:23;98542.28;;;20.78;74.22
70343;BME280;57767;42.068;24.752;2022-08-24T02:22:26;98536.91;;;20.78;74.23
70343;BME280;57767;42.068;24.752;2022-08-24T02:23:28;98533.72;;;20.76;74.17
70343;BME280;57767;42.068;24.752;2022-08-24T02:24:30;98534.00;;;20.74;74.41
70343;BME280;57767;42.068;24.752;2022-08-24T02:25:32;98533.72;;;20.76;74.42
70343;BME280;57767;42.068;24.752;2022-08-24T02:26:34;98536.41;;;20.76;74.24
70343;BME280;57767;42.068;24.752;2022-08-24T02:27:35;98526.78;;;20.70;74.44
70343;BME280;57767;42.068;24.752;2022-08-24T02:28:38;98542.28;;;20.78;74.17
70343;BME280;57767;42.068;24.752;2022-08-24T02:29:40;98533.44;;;20.78;74.12
70343;BME280;57767;42.068;24.752;2022-08-24T02:30:42;98540.63;;;20.82;74.15
70343;BME280;57767;42.068;24.752;2022-08-24T02:31:44;98529.63;;;20.84;73.59
70343;BME280;57767;42.068;24.752;2022-08-24T02:32:46;98533.63;;;20.86;73.64
70343;BME280;57767;42.068;24.752;2022-08-24T02:33:48;98530.94;;;20.86;73.25
70343;BME280;57767;42.068;24.752;2022-08-24T02:34:50;98527.72;;;20.89;72.90
70343;BME280;57767;42.068;24.752;2022-08-24T02:35:55;98531.16;;;20.90;73.10
70343;BME280;57767;42.068;24.752;2022-08-24T02:36:57;98514.28;;;20.89;72.70
70343;BME280;57767;42.068;24.752;2022-08-24T02:38:00;98519.34;;;20.91;72.83
70343;BME280;57767;42.068;24.752;2022-08-24T02:39:03;98526.03;;;20.93;72.31
70343;BME280;57767;42.068;24.752;2022-08-24T02:40:06;98524.69;;;20.96;72.32
70343;BME280;57767;42.068;24.752;2022-08-24T02:41:10;98526.81;;;20.99;72.04
70343;BME280;57767;42.068;24.752;2022-08-24T02:42:13;98525.44;;;21.01;71.77
70343;BME280;57767;42.068;24.752;2022-08-24T02:43:15;98521.97;;;21.01;71.62
70343;BME280;57767;42.068;24.752;2022-08-24T02:44:17;98521.16;;;21.00;71.83
70343;BME280;57767;42.068;24.752;2022-08-24T02:45:20;98506.19;;;20.94;71.52
70343;BME280;57767;42.068;24.752;2022-08-24T02:46:24;98520.09;;;21.01;71.55
70343;BME280;57767;42.068;24.752;2022-08-24T02:47:26;98531.31;;;21.03;71.43
70343;BME280;57767;42.068;24.752;2022-08-24T02:48:39;98532.34;;;21.07;71.34
70343;BME280;57767;42.068;24.752;2022-08-24T02:49:41;98530.47;;;21.08;71.31
70343;BME280;57767;42.068;24.752;2022-08-24T02:50:46;98531.28;;;21.08;71.81
70343;BME280;57767;42.068;24.752;2022-08-24T02:51:48;98533.94;;;21.08;71.70
70343;BME280;57767;42.068;24.752;2022-08-24T02:52:51;98519.78;;;21.03;71.51
70343;BME280;57767;42.068;24.752;2022-08-24T02:53:55;98545.72;;;21.13;71.52
70343;BME280;57767;42.068;24.752;2022-08-24T02:54:58;98542.78;;;21.14;71.57
70343;BME280;57767;42.068;24.752;2022-08-24T02:56:00;98540.13;;;21.09;71.54
70343;BME280;57767;42.068;24.752;2022-08-24T02:57:02;98555.34;;;21.19;71.32
70343;BME280;57767;42.068;24.752;2022-08-24T02:58:04;98535.56;;;21.09;71.18
70343;BME280;57767;42.068;24.752;2022-08-24T02:59:06;98553.44;;;21.24;71.43
70343;BME280;57767;42.068;24.752;2022-08-24T03:00:11;98548.28;;;21.28;71.14
70343;BME280;57767;42.068;24.752;2022-08-24T03:01:15;98549.88;;;21.29;71.02
70343;BME280;57767;42.068;24.752;2022-08-24T03:02:24;98543.78;;;21.23;70.34
70343;BME280;57767;42.068;24.752;2022-08-24T03:03:27;98550.91;;;21.33;70.32
70343;BME280;57767;42.068;24.752;2022-08-24T03:04:29;98557.03;;;21.38;70.32
70343;BME280;57767;42.068;24.752;2022-08-24T03:05:31;98558.13;;;21.37;70.34
70343;BME280;57767;42.068;24.752;2022-08-24T03:06:33;98549.84;;;21.34;70.08
70343;BME280;57767;42.068;24.752;2022-08-24T03:07:35;98550.41;;;21.31;70.21
70343;BME280;57767;42.068;24.752;2022-08-24T03:08:38;98564.31;;;21.38;70.25
70343;BME280;57767;42.068;24.752;2022-08-24T03:09:40;98567.00;;;21.38;69.75
70343;BME280;57767;42.068;24.752;2022-08-24T03:10:42;98563.50;;;21.37;69.54
70343;BME280;57767;42.068;24.752;2022-08-24T03:11:44;98571.84;;;21.36;70.00
70343;BME280;57767;42.068;24.752;2022-08-24T03:12:47;98573.97;;;21.39;70.30
70343;BME280;57767;42.068;24.752;2022-08-24T03:13:50;98569.97;;;21.36;70.61
70343;BME280;57767;42.068;24.752;2022-08-24T03:14:52;98557.22;;;21.18;70.88
70343;BME280;57767;42.068;24.752;2022-08-24T03:15:56;98569.41;;;21.05;71.61
70343;BME280;57767;42.068;24.752;2022-08-24T03:16:58;98576.66;;;21.05;71.88
70343;BME280;57767;42.068;24.752;2022-08-24T03:18:00;98581.03;;;20.96;72.17
70343;BME280;57767;42.068;24.752;2022-08-24T03:19:02;98583.25;;;20.89;72.88
70343;BME280;57767;42.068;24.752;2022-08-24T03:20:06;98583.31;;;20.79;73.36
70343;BME280;57767;42.068;24.752;2022-08-24T03:21:09;98583.69;;;20.67;73.82
70343;BME280;57767;42.068;24.752;2022-08-24T03:22:11;98572.50;;;20.55;74.43
70343;BME280;57767;42.068;24.752;2022-08-24T03:23:14;98576.84;;;20.51;74.90
70343;BME280;57767;42.068;24.752;2022-08-24T03:24:16;98584.94;;;20.41;75.75
70343;BME280;57767;42.068;24.752;2022-08-24T03:25:19;98582.38;;;20.20;76.53
70343;BME280;57767;42.068;24.752;2022-08-24T03:26:22;98587.78;;;20.10;77.46
70343;BME280;57767;42.068;24.752;2022-08-24T03:27:25;98586.22;;;19.99;77.66
70343;BME280;57767;42.068;24.752;2022-08-24T03:28:27;98584.91;;;19.91;78.30
70343;BME280;57767;42.068;24.752;2022-08-24T03:29:29;98589.78;;;19.84;78.84
70343;BME280;57767;42.068;24.752;2022-08-24T03:30:34;98593.53;;;19.83;79.22
70343;BME280;57767;42.068;24.752;2022-08-24T03:31:36;98588.19;;;19.83;79.14
70343;BME280;57767;42.068;24.752;2022-08-24T03:32:39;98570.84;;;19.60;79.49
70343;BME280;57767;42.068;24.752;2022-08-24T03:33:41;98589.28;;;19.67;80.00
70343;BME280;57767;42.068;24.752;2022-08-24T03:34:43;98589.88;;;19.59;80.28
70343;BME280;57767;42.068;24.752;2022-08-24T03:35:45;98576.50;;;19.49;80.44
70343;BME280;57767;42.068;24.752;2022-08-24T03:36:47;98594.19;;;19.50;81.24
70343;BME280;57767;42.068;24.752;2022-08-24T03:37:49;98589.34;;;19.52;80.92
70343;BME280;57767;42.068;24.752;2022-08-24T03:38:52;98573.53;;;19.45;80.81
70343;BME280;57767;42.068;24.752;2022-08-24T03:39:53;98588.25;;;19.58;80.71
70343;BME280;57767;42.068;24.752;2022-08-24T03:40:55;98582.38;;;19.56;80.72
70343;BME280;57767;42.068;24.752;2022-08-24T03:41:57;98584.50;;;19.59;80.47
70343;BME280;57767;42.068;24.752;2022-08-24T03:43:00;98585.84;;;19.61;80.44
70343;BME280;57767;42.068;24.752;2022-08-24T03:44:03;98561.22;;;19.59;80.32
70343;BME280;57767;42.068;24.752;2022-08-24T03:45:05;98579.91;;;19.75;79.80
70343;BME280;57767;42.068;24.752;2022-08-24T03:46:09;98574.25;;;19.81;79.43
70343;BME280;57767;42.068;24.752;2022-08-24T03:47:12;98572.34;;;19.87;78.99
70343;BME280;57767;42.068;24.752;2022-08-24T03:48:14;98575.53;;;19.94;79.07
70343;BME280;57767;42.068;24.752;2022-08-24T03:49:16;98563.25;;;19.88;78.93
70343;BME280;57767;42.068;24.752;2022-08-24T03:50:18;98557.84;;;19.93;78.65
70343;BME280;57767;42.068;24.752;2022-08-24T03:51:24;98557.28;;;20.01;78.05
70343;BME280;57767;42.068;24.752;2022-08-24T03:52:26;98571.69;;;20.10;77.40
70343;BME280;57767;42.068;24.752;2022-08-24T03:53:33;98573.53;;;20.15;76.67
70343;BME280;57767;42.068;24.752;2022-08-24T03:54:37;98556.72;;;20.04;76.76
70343;BME280;57767;42.068;24.752;2022-08-24T03:55:39;98573.78;;;20.18;76.40
70343;BME280;57767;42.068;24.752;2022-08-24T03:56:41;98571.09;;;20.23;76.60
70343;BME280;57767;42.068;24.752;2022-08-24T03:57:43;98577.47;;;20.27;76.69
70343;BME280;57767;42.068;24.752;2022-08-24T03:58:45;98570.00;;;20.24;76.73
70343;BME280;57767;42.068;24.752;2022-08-24T03:59:47;98572.38;;;20.31;76.83
70343;BME280;57767;42.068;24.752;2022-08-24T04:00:49;98579.63;;;20.35;76.47
70343;BME280;57767;42.068;24.752;2022-08-24T04:01:51;98559.03;;;20.26;76.25
70343;BME280;57767;42.068;24.752;2022-08-24T04:02:56;98575.81;;;20.42;76.16
70343;BME280;57767;42.068;24.752;2022-08-24T04:03:58;98577.94;;;20.45;76.33
70343;BME280;57767;42.068;24.752;2022-08-24T04:05:00;98557.63;;;20.33;76.20
70343;BME280;57767;42.068;24.752;2022-08-24T04:06:03;98568.84;;;20.46;74.85
70343;BME280;57767;42.068;24.752;2022-08-24T04:07:05;98564.00;;;20.43;74.91
70343;BME280;57767;42.068;24.752;2022-08-24T04:08:07;98578.69;;;20.55;74.86
70343;BME280;57767;42.068;24.752;2022-08-24T04:09:09;98583.22;;;20.60;75.14
70343;BME280;57767;42.068;24.752;2022-08-24T04:10:12;98579.47;;;20.61;75.24
70343;BME280;57767;42.068;24.752;2022-08-24T04:11:18;98570.88;;;20.59;75.08
70343;BME280;57767;42.068;24.752;2022-08-24T04:12:20;98581.28;;;20.65;75.05
70343;BME280;57767;42.068;24.752;2022-08-24T04:13:23;98576.44;;;20.67;75.27
70343;BME280;57767;42.068;24.752;2022-08-24T04:14:25;98585.81;;;20.70;75.39
70343;BME280;57767;42.068;24.752;2022-08-24T04:15:28;98576.94;;;20.74;75.39
70343;BME280;57767;42.068;24.752;2022-08-24T04:16:32;98575.59;;;20.77;75.34
70343;BME280;57767;42.068;24.752;2022-08-24T04:17:34;98573.91;;;20.81;75.28
70343;BME280;57767;42.068;24.752;2022-08-24T04:18:35;98581.41;;;20.84;75.31
70343;BME280;57767;42.068;24.752;2022-08-24T04:19:37;98576.78;;;20.90;75.79
70343;BME280;57767;42.068;24.752;2022-08-24T04:20:58;98569.03;;;20.88;76.07
70343;BME280;57767;42.068;24.752;2022-08-24T04:22:00;98581.84;;;20.96;75.86
70343;BME280;57767;42.068;24.752;2022-08-24T04:23:02;98583.38;;;21.02;75.09
70343;BME280;57767;42.068;24.752;2022-08-24T04:24:06;98590.84;;;21.10;75.10
70343;BME280;57767;42.068;24.752;2022-08-24T04:25:08;98568.34;;;21.06;75.10
70343;BME280;57767;42.068;24.752;2022-08-24T04:26:10;98575.78;;;21.15;75.24
70343;BME280;57767;42.068;24.752;2022-08-24T04:27:12;98588.50;;;21.33;74.85
70343;BME280;57767;42.068;24.752;2022-08-24T04:28:15;98590.06;;;21.39;74.23
70343;BME280;57767;42.068;24.752;2022-08-24T04:29:20;98596.47;;;21.43;73.77
70343;BME280;57767;42.068;24.752;2022-08-24T04:30:22;98591.31;;;21.47;74.28
70343;BME280;57767;42.068;24.752;2022-08-24T04:31:25;98590.19;;;21.53;74.49
70343;BME280;57767;42.068;24.752;2022-08-24T04:32:30;98593.34;;;21.60;73.64
70343;BME280;57767;42.068;24.752;2022-08-24T04:33:32;98596.19;;;21.68;74.05
70343;BME280;57767;42.068;24.752;2022-08-24T04:34:34;98597.75;;;21.74;73.30
70343;BME280;57767;42.068;24.752;2022-08-24T04:35:40;98593.31;;;21.84;73.18
70343;BME280;57767;42.068;24.752;2022-08-24T04:36:43;98595.69;;;21.90;71.86
70343;BME280;57767;42.068;24.752;2022-08-24T04:37:45;98599.34;;;21.99;71.98
70343;BME280;57767;42.068;24.752;2022-08-24T04:38:48;98600.38;;;22.03;71.10
70343;BME280;57767;42.068;24.752;2022-08-24T04:39:50;98583.44;;;22.03;71.02
70343;BME280;57767;42.068;24.752;2022-08-24T04:40:54;98597.03;;;22.11;69.91
70343;BME280;57767;42.068;24.752;2022-08-24T04:42:00;98596.47;;;22.14;69.89
70343;BME280;57767;42.068;24.752;2022-08-24T04:43:04;98593.78;;;22.14;69.34
70343;BME280;57767;42.068;24.752;2022-08-24T04:44:07;98596.19;;;22.16;69.56
70343;BME280;57767;42.068;24.752;2022-08-24T04:45:09;98593.78;;;22.14;70.06
70343;BME280;57767;42.068;24.752;2022-08-24T04:46:12;98578.50;;;22.10;70.30
70343;BME280;57767;42.068;24.752;2022-08-24T04:47:15;98596.84;;;22.27;70.49
70343;BME280;57767;42.068;24.752;2022-08-24T04:48:17;98584.25;;;22.22;69.79
70343;BME280;57767;42.068;24.752;2022-08-24T04:49:19;98601.94;;;22.28;69.82
70343;BME280;57767;42.068;24.752;2022-08-24T04:50:21;98607.78;;;22.30;69.83
70343;BME280;57767;42.068;24.752;2022-08-24T04:51:23;98605.09;;;22.30;69.41
70343;BME280;57767;42.068;24.752;2022-08-24T04:52:25;98599.25;;;22.28;69.77
70343;BME280;57767;42.068;24.752;2022-08-24T04:53:27;98599.38;;;22.37;70.10
70343;BME280;57767;42.068;24.752;2022-08-24T04:54:28;98582.78;;;22.30;70.05
70343;BME280;57767;42.068;24.752;2022-08-24T04:55:31;98577.13;;;22.31;70.06
70343;BME280;57767;42.068;24.752;2022-08-24T04:56:34;98602.94;;;22.51;69.75
70343;BME280;57767;42.068;24.752;2022-08-24T04:57:37;98590.88;;;22.48;69.91
70343;BME280;57767;42.068;24.752;2022-08-24T04:58:38;98598.78;;;22.59;70.52
70343;BME280;57767;42.068;24.752;2022-08-24T04:59:42;98583.53;;;22.54;71.36
70343;BME280;57767;42.068;24.752;2022-08-24T05:00:46;98594.03;;;22.69;71.68
70343;BME280;57767;42.068;24.752;2022-08-24T05:01:48;98577.59;;;22.71;70.93
70343;BME280;57767;42.068;24.752;2022-08-24T05:02:50;98591.16;;;22.84;72.94
70343;BME280;57767;42.068;24.752;2022-08-24T05:04:56;98594.78;;;23.07;70.69
70343;BME280;57767;42.068;24.752;2022-08-24T05:05:58;98592.34;;;23.25;71.91
70343;BME280;57767;42.068;24.752;2022-08-24T05:07:00;98588.38;;;23.36;69.08
70343;BME280;57767;42.068;24.752;2022-08-24T05:08:02;98591.69;;;23.46;67.88
70343;BME280;57767;42.068;24.752;2022-08-24T05:09:05;98591.00;;;23.41;66.57
70343;BME280;57767;42.068;24.752;2022-08-24T05:10:07;98604.84;;;23.48;66.99
70343;BME280;57767;42.068;24.752;2022-08-24T05:11:12;98599.47;;;23.48;66.80
70343;BME280;57767;42.068;24.752;2022-08-24T05:12:14;98602.09;;;23.53;66.27
70343;BME280;57767;42.068;24.752;2022-08-24T05:13:18;98592.47;;;23.47;66.08
70343;BME280;57767;42.068;24.752;2022-08-24T05:14:20;98605.09;;;23.65;67.11
70343;BME280;57767;42.068;24.752;2022-08-24T05:15:27;98603.09;;;23.71;66.67
70343;BME280;57767;42.068;24.752;2022-08-24T05:16:28;98598.13;;;23.78;66.15
70343;BME280;57767;42.068;24.752;2022-08-24T05:17:32;98593.91;;;23.85;64.74
70343;BME280;57767;42.068;24.752;2022-08-24T05:18:34;98600.69;;;23.97;64.77
70343;BME280;57767;42.068;24.752;2022-08-24T05:19:36;98606.28;;;24.00;65.12
70343;BME280;57767;42.068;24.752;2022-08-24T05:20:43;98604.91;;;24.03;64.89
70343;BME280;57767;42.068;24.752;2022-08-24T05:21:45;98604.91;;;24.03;64.74
70343;BME280;57767;42.068;24.752;2022-08-24T05:22:50;98603.97;;;24.07;64.63
70343;BME280;57767;42.068;24.752;2022-08-24T05:23:56;98605.28;;;24.10;64.23
70343;BME280;57767;42.068;24.752;2022-08-24T05:24:58;98605.88;;;24.07;64.92
70343;BME280;57767;42.068;24.752;2022-08-24T05:26:07;98604.28;;;24.06;65.04
70343;BME280;57767;42.068;24.752;2022-08-24T05:27:09;98601.78;;;24.09;65.24
70343;BME280;57767;42.068;24.752;2022-08-24T05:28:14;98593.50;;;24.06;64.90
70343;BME280;57767;42.068;24.752;2022-08-24T05:29:16;98592.38;;;24.07;64.64
70343;BME280;57767;42.068;24.752;2022-08-24T05:30:19;98602.97;;;24.17;65.24
70343;BME280;57767;42.068;24.752;2022-08-24T05:31:23;98612.28;;;24.24;64.24
70343;BME280;57767;42.068;24.752;2022-08-24T05:32:26;98603.59;;;24.27;64.17
70343;BME280;57767;42.068;24.752;2022-08-24T05:33:27;98605.34;;;24.32;64.04
70343;BME280;57767;42.068;24.752;2022-08-24T05:34:29;98602.06;;;24.35;64.00
70343;BME280;57767;42.068;24.752;2022-08-24T05:35:37;98579.97;;;24.19;63.82
70343;BME280;57767;42.068;24.752;2022-08-24T05:36:44;98603.06;;;24.39;63.61
70343;BME280;57767;42.068;24.752;2022-08-24T05:37:46;98607.22;;;24.45;65.59
70343;BME280;57767;42.068;24.752;2022-08-24T05:38:49;98610.50;;;24.56;66.86